createdAt,value
2018-09-27T00:00:52.017Z,5.80
2018-09-27T00:02:56.917Z,11.80
2018-09-27T00:05:01.800Z,8.80
2018-09-27T00:07:06.967Z,2.97
2018-09-27T00:09:11.889Z,2.43
2018-09-27T00:11:16.712Z,5.10
2018-09-27T00:13:21.532Z,3.27
2018-09-27T00:15:26.407Z,6.53
2018-09-27T00:17:31.113Z,4.60
2018-09-27T00:19:35.959Z,2.60
2018-09-27T00:21:40.745Z,2.60
2018-09-27T00:23:45.565Z,5.63
2018-09-27T00:25:51.003Z,7.37
2018-09-27T00:27:55.909Z,5.80
2018-09-27T00:30:00.694Z,13.20
2018-09-27T00:32:05.728Z,9.20
2018-09-27T00:34:10.647Z,7.03
2018-09-27T00:36:15.527Z,4.87
2018-09-27T00:38:20.779Z,4.00
2018-09-27T00:40:25.579Z,3.83
2018-09-27T00:42:30.574Z,10.07
2018-09-27T00:44:35.687Z,5.00
2018-09-27T00:46:40.672Z,4.17
2018-09-27T00:48:45.630Z,5.93
2018-09-27T00:50:50.413Z,4.37
2018-09-27T00:52:55.112Z,5.27
2018-09-27T00:54:59.814Z,5.20
2018-09-27T00:57:04.540Z,4.00
2018-09-27T00:59:09.167Z,2.57
2018-09-27T01:01:13.971Z,3.87
2018-09-27T01:03:18.669Z,7.37
2018-09-27T01:05:23.340Z,3.70
2018-09-27T01:07:28.257Z,5.93
2018-09-27T01:09:33.359Z,7.10
2018-09-27T01:11:38.209Z,4.70
2018-09-27T01:13:42.813Z,3.23
2018-09-27T01:15:47.469Z,3.93
2018-09-27T01:17:52.074Z,12.73
2018-09-27T01:19:56.764Z,3.23
2018-09-27T01:22:01.581Z,9.73
2018-09-27T01:24:06.334Z,3.20
2018-09-27T01:26:11.186Z,5.50
2018-09-27T01:28:16.304Z,6.37
2018-09-27T01:30:21.008Z,2.90
2018-09-27T01:32:25.722Z,5.40
2018-09-27T01:34:30.450Z,6.27
2018-09-27T01:36:35.184Z,2.50
2018-09-27T01:38:39.966Z,5.43
2018-09-27T01:40:45.048Z,7.20
2018-09-27T01:42:49.702Z,4.60
2018-09-27T01:44:54.471Z,8.27
2018-09-27T01:46:59.403Z,5.03
2018-09-27T01:49:04.079Z,5.87
2018-09-27T01:51:08.877Z,4.53
2018-09-27T01:53:13.623Z,5.53
2018-09-27T01:55:18.223Z,7.83
2018-09-27T01:57:22.887Z,7.73
2018-09-27T01:59:27.569Z,3.70
2018-09-27T02:01:32.203Z,4.17
2018-09-27T02:03:36.978Z,3.47
2018-09-27T02:05:41.874Z,5.47
2018-09-27T02:07:46.581Z,4.50
2018-09-27T02:09:51.225Z,3.40
2018-09-27T02:11:56.145Z,3.60
2018-09-27T02:14:00.754Z,7.60
2018-09-27T02:16:05.331Z,3.97
2018-09-27T02:18:10.133Z,2.90
2018-09-27T02:20:14.833Z,4.47
2018-09-27T02:22:19.449Z,8.50
2018-09-27T02:24:24.102Z,5.63
2018-09-27T02:26:28.787Z,3.13
2018-09-27T02:28:33.415Z,4.13
2018-09-27T02:30:38.212Z,5.90
2018-09-27T02:32:42.797Z,5.87
2018-09-27T02:34:47.372Z,4.93
2018-09-27T02:36:52.144Z,3.80
2018-09-27T02:38:56.941Z,7.53
2018-09-27T02:41:01.764Z,5.33
2018-09-27T02:43:06.437Z,2.83
2018-09-27T02:45:11.078Z,7.40
2018-09-27T02:47:15.763Z,7.97
2018-09-27T02:49:20.411Z,4.73
2018-09-27T02:51:25.215Z,2.00
2018-09-27T02:53:30.001Z,6.80
2018-09-27T02:55:34.730Z,3.17
2018-09-27T02:57:39.413Z,4.20
2018-09-27T02:59:44.299Z,4.40
2018-09-27T03:01:49.224Z,2.77
2018-09-27T03:03:53.953Z,4.43
2018-09-27T03:05:58.658Z,4.00
2018-09-27T03:08:03.356Z,2.90
2018-09-27T03:10:08.116Z,3.53
2018-09-27T03:12:12.770Z,16.93
2018-09-27T03:14:17.459Z,4.63
2018-09-27T03:16:22.194Z,6.07
2018-09-27T03:18:26.922Z,4.87
2018-09-27T03:20:32.057Z,7.43
2018-09-27T03:22:36.898Z,3.10
2018-09-27T03:24:41.596Z,5.33
2018-09-27T03:26:46.264Z,2.67
2018-09-27T03:28:50.877Z,3.90
2018-09-27T03:30:55.570Z,6.63
2018-09-27T03:33:00.223Z,8.73
2018-09-27T03:35:05.041Z,4.60
2018-09-27T03:37:09.685Z,3.70
2018-09-27T03:39:14.301Z,2.97
2018-09-27T03:41:18.924Z,3.40
2018-09-27T03:43:23.582Z,1.93
2018-09-27T03:45:28.406Z,4.53
2018-09-27T03:47:33.102Z,6.27
2018-09-27T03:49:37.690Z,7.10
2018-09-27T03:51:42.746Z,4.40
2018-09-27T03:53:47.412Z,5.97
2018-09-27T03:55:52.102Z,3.50
2018-09-27T03:57:56.985Z,4.73
2018-09-27T04:00:01.942Z,3.73
2018-09-27T04:02:06.894Z,4.20
2018-09-27T04:04:11.658Z,5.70
2018-09-27T04:06:16.330Z,7.47
2018-09-27T04:08:21.030Z,2.07
2018-09-27T04:10:25.801Z,2.47
2018-09-27T04:12:30.686Z,6.20
2018-09-27T04:14:35.446Z,2.93
2018-09-27T04:16:40.286Z,5.57
2018-09-27T04:18:45.075Z,3.47
2018-09-27T04:20:51.371Z,7.57
2018-09-27T04:22:56.339Z,2.53
2018-09-27T04:25:00.990Z,6.03
2018-09-27T04:27:05.849Z,3.73
2018-09-27T04:29:10.620Z,8.57
2018-09-27T04:31:15.438Z,3.30
2018-09-27T04:33:20.241Z,2.23
2018-09-27T04:35:25.099Z,6.60
2018-09-27T04:37:30.006Z,4.47
2018-09-27T04:39:34.755Z,7.23
2018-09-27T04:41:39.651Z,2.60
2018-09-27T04:43:44.354Z,3.97
2018-09-27T04:45:49.052Z,4.37
2018-09-27T04:47:53.919Z,3.33
2018-09-27T04:49:58.625Z,9.87
2018-09-27T04:52:03.396Z,4.30
2018-09-27T04:54:08.193Z,2.97
2018-09-27T04:56:12.936Z,4.70
2018-09-27T04:58:17.575Z,2.70
2018-09-27T05:00:22.261Z,5.67
2018-09-27T05:02:26.949Z,6.43
2018-09-27T05:04:31.779Z,3.30
2018-09-27T05:06:36.550Z,2.30
2018-09-27T05:08:41.266Z,5.40
2018-09-27T05:10:46.047Z,3.43
2018-09-27T05:12:51.154Z,2.47
2018-09-27T05:14:56.044Z,3.73
2018-09-27T05:17:00.836Z,9.00
2018-09-27T05:19:05.659Z,2.20
2018-09-27T05:21:10.424Z,3.97
2018-09-27T05:23:15.177Z,5.97
2018-09-27T05:25:20.010Z,9.03
2018-09-27T05:27:24.913Z,5.80
2018-09-27T05:29:29.697Z,7.30
2018-09-27T05:31:34.319Z,8.53
2018-09-27T05:33:39.184Z,3.33
2018-09-27T05:35:43.982Z,4.97
2018-09-27T05:37:49.034Z,4.33
2018-09-27T05:39:53.861Z,3.50
2018-09-27T05:41:58.573Z,9.20
2018-09-27T05:44:03.669Z,5.50
2018-09-27T05:46:08.773Z,6.17
2018-09-27T05:48:13.744Z,2.97
2018-09-27T05:50:18.365Z,4.33
2018-09-27T05:52:23.191Z,3.00
2018-09-27T05:54:28.083Z,7.50
2018-09-27T05:56:33.031Z,5.33
2018-09-27T05:58:37.688Z,4.53
2018-09-27T06:00:42.346Z,5.30
2018-09-27T06:02:47.291Z,5.33
2018-09-27T06:04:52.090Z,5.33
2018-09-27T06:06:57.031Z,12.90
2018-09-27T06:09:02.037Z,6.40
2018-09-27T06:11:06.904Z,4.70
2018-09-27T06:13:11.605Z,5.37
2018-09-27T06:15:16.369Z,5.90
2018-09-27T06:17:21.159Z,13.53
2018-09-27T06:19:26.711Z,6.07
2018-09-27T06:21:31.674Z,5.13
2018-09-27T06:23:36.529Z,8.87
2018-09-27T06:25:41.475Z,5.50
2018-09-27T06:27:46.347Z,10.80
2018-09-27T06:29:51.129Z,5.23
2018-09-27T06:31:55.862Z,8.00
2018-09-27T06:34:00.663Z,16.60
2018-09-27T06:36:05.411Z,3.73
2018-09-27T06:38:10.177Z,6.07
2018-09-27T06:40:15.140Z,10.13
2018-09-27T06:42:19.887Z,13.83
2018-09-27T06:44:24.716Z,6.07
2018-09-27T06:46:29.552Z,15.90
2018-09-27T06:48:34.411Z,13.40
2018-09-27T06:50:39.324Z,6.03
2018-09-27T06:52:45.056Z,9.37
2018-09-27T06:54:50.198Z,11.10
2018-09-27T06:56:55.041Z,7.63
2018-09-27T06:59:00.013Z,7.70
2018-09-27T07:01:04.941Z,16.43
2018-09-27T07:03:09.932Z,10.90
2018-09-27T07:05:15.141Z,9.17
2018-09-27T07:07:20.286Z,4.20
2018-09-27T07:09:25.178Z,6.77
2018-09-27T07:11:30.821Z,4.80
2018-09-27T07:13:35.889Z,8.47
2018-09-27T07:15:40.708Z,4.70
2018-09-27T07:17:46.116Z,9.97
2018-09-27T07:19:51.153Z,7.37
2018-09-27T07:21:55.993Z,5.33
2018-09-27T07:24:01.007Z,6.40
2018-09-27T07:26:05.958Z,10.43
2018-09-27T07:28:10.957Z,12.10
2018-09-27T07:30:15.879Z,4.97
2018-09-27T07:32:20.600Z,4.27
2018-09-27T07:34:25.493Z,3.00
2018-09-27T07:36:30.272Z,3.63
2018-09-27T07:38:35.222Z,8.67
2018-09-27T07:40:40.052Z,4.00
2018-09-27T07:47:49.126Z,12.13
2018-09-27T07:49:53.973Z,4.40
2018-09-27T07:51:58.870Z,6.73
2018-09-27T07:54:03.886Z,6.87
2018-09-27T07:56:08.698Z,7.23
2018-09-27T07:58:13.454Z,4.00
2018-09-27T08:00:18.197Z,5.57
2018-09-27T08:02:23.182Z,6.90
2018-09-27T08:04:28.377Z,6.90
2018-09-27T08:06:33.115Z,3.00
2018-09-27T08:08:37.898Z,4.60
2018-09-27T08:10:42.563Z,5.10
2018-09-27T08:12:47.261Z,4.50
2018-09-27T08:14:51.868Z,5.30
2018-09-27T08:16:57.157Z,11.50
2018-09-27T08:19:01.947Z,3.60
2018-09-27T08:21:06.917Z,4.50
2018-09-27T08:23:11.573Z,2.67
2018-09-27T08:25:16.292Z,10.50
2018-09-27T08:27:20.930Z,4.20
2018-09-27T08:29:25.681Z,4.93
2018-09-27T08:31:30.515Z,6.50
2018-09-27T08:33:35.314Z,3.23
2018-09-27T08:35:40.007Z,7.30
2018-09-27T08:37:44.819Z,7.77
2018-09-27T08:39:49.695Z,18.10
2018-09-27T08:41:54.557Z,4.67
2018-09-27T08:43:59.802Z,2.63
2018-09-27T08:46:04.746Z,6.07
2018-09-27T08:48:09.817Z,5.50
2018-09-27T08:50:14.720Z,4.47
2018-09-27T08:52:19.594Z,7.60
2018-09-27T08:54:24.522Z,4.50
2018-09-27T08:56:29.452Z,5.30
2018-09-27T08:58:34.274Z,3.20
2018-09-27T09:00:39.075Z,3.43
2018-09-27T09:02:43.923Z,5.03
2018-09-27T09:04:48.806Z,4.50
2018-09-27T09:06:53.589Z,9.80
2018-09-27T09:08:58.456Z,9.07
2018-09-27T09:11:03.314Z,5.70
2018-09-27T09:13:08.312Z,5.17
2018-09-27T09:15:13.399Z,9.30
2018-09-27T09:17:18.310Z,7.50
2018-09-27T09:19:23.103Z,9.60
2018-09-27T09:21:27.963Z,2.80
2018-09-27T09:23:32.748Z,3.73
2018-09-27T09:25:37.569Z,13.50
2018-09-27T09:27:42.459Z,7.90
2018-09-27T09:29:47.919Z,10.63
2018-09-27T09:31:53.059Z,8.23
2018-09-27T09:33:58.031Z,10.47
2018-09-27T09:36:03.016Z,7.10
2018-09-27T09:38:07.923Z,7.47
2018-09-27T09:40:12.702Z,6.10
2018-09-27T09:42:17.739Z,10.20
2018-09-27T09:44:22.886Z,4.40
2018-09-27T09:46:27.741Z,7.07
2018-09-27T09:48:32.750Z,5.60
2018-09-27T09:50:37.605Z,7.10
2018-09-27T09:52:42.447Z,8.47
2018-09-27T09:54:47.451Z,11.10
2018-09-27T09:56:53.214Z,5.40
2018-09-27T09:58:58.210Z,6.50
2018-09-27T10:01:03.172Z,8.77
2018-09-27T10:03:09.210Z,8.47
2018-09-27T10:05:14.299Z,7.93
2018-09-27T10:07:19.496Z,7.53
2018-09-27T10:09:24.404Z,11.77
2018-09-27T10:11:29.315Z,7.03
2018-09-27T10:13:34.131Z,7.53
2018-09-27T10:15:38.993Z,7.07
2018-09-27T10:17:43.838Z,6.80
2018-09-27T10:19:48.860Z,13.20
2018-09-27T10:21:53.795Z,4.70
2018-09-27T10:23:58.941Z,4.97
2018-09-27T10:26:04.000Z,9.40
2018-09-27T10:28:09.197Z,13.17
2018-09-27T10:30:15.083Z,11.77
2018-09-27T10:32:20.015Z,8.50
2018-09-27T10:34:24.808Z,9.23
2018-09-27T10:36:29.762Z,10.70
2018-09-27T10:38:34.473Z,9.87
2018-09-27T10:40:39.428Z,7.70
2018-09-27T10:42:46.466Z,11.43
2018-09-27T10:44:51.383Z,9.50
2018-09-27T10:46:56.240Z,13.53
2018-09-27T10:49:01.018Z,10.00
2018-09-27T10:51:05.830Z,8.30
2018-09-27T10:53:10.643Z,9.73
2018-09-27T10:55:15.542Z,14.77
2018-09-27T10:57:20.986Z,11.97
2018-09-27T10:59:25.831Z,7.70
2018-09-27T11:01:30.855Z,11.33
2018-09-27T11:03:35.727Z,13.20
2018-09-27T11:05:40.749Z,12.00
2018-09-27T11:07:45.951Z,10.67
2018-09-27T11:09:51.609Z,9.30
2018-09-27T11:11:56.567Z,7.67
2018-09-27T11:14:01.559Z,9.67
2018-09-27T11:16:06.539Z,10.70
2018-09-27T11:18:11.307Z,9.37
2018-09-27T11:20:16.613Z,7.17
2018-09-27T11:22:21.451Z,9.03
2018-09-27T11:24:26.340Z,9.60
2018-09-27T11:26:31.487Z,16.87
2018-09-27T11:28:41.161Z,9.17
2018-09-27T11:30:45.999Z,9.23
2018-09-27T11:32:50.837Z,11.40
2018-09-27T11:34:55.770Z,9.80
2018-09-27T11:37:00.592Z,7.03
2018-09-27T11:39:07.944Z,8.73
2018-09-27T11:41:12.727Z,6.70
2018-09-27T11:43:17.445Z,9.07
2018-09-27T11:45:22.171Z,6.60
2018-09-27T11:47:26.848Z,9.57
2018-09-27T11:49:31.882Z,13.57
2018-09-27T11:51:36.632Z,7.47
2018-09-27T11:53:41.388Z,7.27
2018-09-27T11:55:46.265Z,9.93
2018-09-27T11:57:51.259Z,6.50
2018-09-27T11:59:56.715Z,7.00
2018-09-27T12:02:01.478Z,6.83
2018-09-27T12:04:06.216Z,7.93
2018-09-27T12:06:11.104Z,8.23
2018-09-27T12:08:16.120Z,7.63
2018-09-27T12:10:21.040Z,6.47
2018-09-27T12:12:25.988Z,7.97
2018-09-27T12:14:31.083Z,6.60
2018-09-27T12:16:36.050Z,7.10
2018-09-27T12:18:41.117Z,6.53
2018-09-27T12:20:45.894Z,4.67
2018-09-27T12:22:50.796Z,5.10
2018-09-27T12:24:55.643Z,6.10
2018-09-27T12:27:00.383Z,5.37
2018-09-27T12:29:05.184Z,3.37
2018-09-27T12:31:10.181Z,3.83
2018-09-27T12:33:15.367Z,6.50
2018-09-27T12:35:20.348Z,4.77
2018-09-27T12:37:25.290Z,7.40
2018-09-27T12:39:30.167Z,3.97
2018-09-27T12:41:34.998Z,9.83
2018-09-27T12:43:40.000Z,4.33
2018-09-27T12:45:45.174Z,3.93
2018-09-27T12:47:50.467Z,3.30
2018-09-27T12:49:55.222Z,4.07
2018-09-27T12:52:00.973Z,3.23
2018-09-27T12:54:06.032Z,5.33
2018-09-27T12:56:10.947Z,1.87
2018-09-27T12:58:15.847Z,1.97
2018-09-27T13:00:20.840Z,10.87
2018-09-27T13:02:25.691Z,5.70
2018-09-27T13:04:30.622Z,6.50
2018-09-27T13:06:35.659Z,4.93
2018-09-27T13:08:40.889Z,5.73
2018-09-27T13:10:45.722Z,6.80
2018-09-27T13:12:50.589Z,2.97
2018-09-27T13:14:55.480Z,2.07
2018-09-27T13:17:00.682Z,4.53
2018-09-27T13:19:05.914Z,2.93
2018-09-27T13:21:10.689Z,3.67
2018-09-27T13:23:15.522Z,2.20
2018-09-27T13:25:20.335Z,2.60
2018-09-27T13:27:25.151Z,6.37
2018-09-27T13:29:29.914Z,5.60
2018-09-27T13:31:35.121Z,3.67
2018-09-27T13:33:40.138Z,5.50
2018-09-27T13:35:45.230Z,4.60
2018-09-27T13:37:50.168Z,4.23
2018-09-27T13:39:55.170Z,4.63
2018-09-27T13:42:00.032Z,4.10
2018-09-27T13:44:05.040Z,6.03
2018-09-27T13:46:10.114Z,4.10
2018-09-27T13:48:15.132Z,6.20
2018-09-27T13:50:20.327Z,4.57
2018-09-27T13:52:25.453Z,7.33
2018-09-27T13:54:30.529Z,4.70
2018-09-27T13:56:35.642Z,5.47
2018-09-27T13:58:40.539Z,4.27
2018-09-27T14:00:52.255Z,3.13
2018-09-27T14:02:57.608Z,4.10
2018-09-27T14:05:02.722Z,7.50
2018-09-27T14:07:07.867Z,6.07
2018-09-27T14:09:12.666Z,3.83
2018-09-27T14:11:17.495Z,4.40
2018-09-27T14:13:22.339Z,10.40
2018-09-27T14:15:27.101Z,5.73
2018-09-27T14:17:31.822Z,6.20
2018-09-27T14:19:36.604Z,8.23
2018-09-27T14:21:41.484Z,8.17
2018-09-27T14:23:46.559Z,8.57
2018-09-27T14:25:52.107Z,6.03
2018-09-27T14:27:56.986Z,7.63
2018-09-27T14:30:01.849Z,9.60
2018-09-27T14:32:06.965Z,3.80
2018-09-27T14:34:11.753Z,8.80
2018-09-27T14:36:17.126Z,3.87
2018-09-27T14:38:21.922Z,11.07
2018-09-27T14:40:26.650Z,5.83
2018-09-27T14:42:31.556Z,6.20
2018-09-27T14:44:36.397Z,10.83
2018-09-27T14:46:41.251Z,6.30
2018-09-27T14:48:45.903Z,7.03
2018-09-27T14:50:50.618Z,6.70
2018-09-27T14:52:55.371Z,4.70
2018-09-27T14:55:00.083Z,6.07
2018-09-27T14:57:05.026Z,6.37
2018-09-27T14:59:09.744Z,7.60
2018-09-27T15:01:14.586Z,7.77
2018-09-27T15:03:19.579Z,4.13
2018-09-27T15:05:24.403Z,6.50
2018-09-27T15:07:29.197Z,4.80
2018-09-27T15:09:34.200Z,3.57
2018-09-27T15:11:38.944Z,6.07
2018-09-27T15:13:43.828Z,3.40
2018-09-27T15:15:48.544Z,4.30
2018-09-27T15:17:53.320Z,4.27
2018-09-27T15:19:58.014Z,5.10
2018-09-27T15:22:02.881Z,3.13
2018-09-27T15:24:07.836Z,8.70
2018-09-27T15:26:12.619Z,4.33
2018-09-27T15:28:17.294Z,3.07
2018-09-27T15:30:22.202Z,7.30
2018-09-27T15:32:27.066Z,4.20
2018-09-27T15:34:32.001Z,4.47
2018-09-27T15:36:36.976Z,4.30
2018-09-27T15:38:42.023Z,2.00
2018-09-27T15:40:46.906Z,5.67
2018-09-27T15:42:52.053Z,5.13
2018-09-27T15:44:57.166Z,11.67
2018-09-27T15:47:02.073Z,4.33
2018-09-27T15:49:06.906Z,4.93
2018-09-27T15:51:11.707Z,4.80
2018-09-27T15:53:16.566Z,12.47
2018-09-27T15:55:21.513Z,5.13
2018-09-27T15:57:26.478Z,7.30
2018-09-27T15:59:31.401Z,6.10
2018-09-27T16:01:36.708Z,9.33
2018-09-27T16:03:41.525Z,9.23
2018-09-27T16:05:46.663Z,6.67
2018-09-27T16:07:52.073Z,7.00
2018-09-27T16:09:56.788Z,5.33
2018-09-27T16:12:07.515Z,7.87
2018-09-27T16:14:13.643Z,11.83
2018-09-27T16:16:18.961Z,6.87
2018-09-27T16:18:24.855Z,10.77
2018-09-27T16:20:29.740Z,6.43
2018-09-27T16:22:34.905Z,9.10
2018-09-27T16:24:39.727Z,6.43
2018-09-27T16:26:44.651Z,9.80
2018-09-27T16:28:49.640Z,7.03
2018-09-27T16:30:54.470Z,7.40
2018-09-27T16:32:59.206Z,8.87
2018-09-27T16:35:04.116Z,6.30
2018-09-27T16:37:08.946Z,6.47
2018-09-27T16:39:14.217Z,18.53
2018-09-27T16:41:18.858Z,11.37
2018-09-27T16:43:23.563Z,6.87
2018-09-27T16:45:28.321Z,10.13
2018-09-27T16:47:33.208Z,12.73
2018-09-27T16:49:37.900Z,7.47
2018-09-27T16:51:42.839Z,15.87
2018-09-27T16:53:47.818Z,10.17
2018-09-27T16:55:53.090Z,14.57
2018-09-27T16:57:57.862Z,7.50
2018-09-27T17:00:02.623Z,6.10
2018-09-27T17:02:07.620Z,9.07
2018-09-27T17:04:12.613Z,9.07
2018-09-27T17:06:17.557Z,9.17
2018-09-27T17:08:22.659Z,5.57
2018-09-27T17:10:27.419Z,11.43
2018-09-27T17:12:32.156Z,12.90
2018-09-27T17:14:36.935Z,7.63
2018-09-27T17:16:41.763Z,7.13
2018-09-27T17:18:46.665Z,8.43
2018-09-27T17:20:52.967Z,7.83
2018-09-27T17:22:57.847Z,7.97
2018-09-27T17:25:03.059Z,8.73
2018-09-27T17:27:08.391Z,6.40
2018-09-27T17:29:13.258Z,7.30
2018-09-27T17:31:18.113Z,6.33
2018-09-27T17:33:23.124Z,8.93
2018-09-27T17:35:28.032Z,5.93
2018-09-27T17:37:33.076Z,7.07
2018-09-27T17:39:38.748Z,15.73
2018-09-27T17:41:43.511Z,7.60
2018-09-27T17:43:48.308Z,7.27
2018-09-27T17:45:53.423Z,11.20
2018-09-27T17:47:58.849Z,4.93
2018-09-27T17:50:03.834Z,9.17
2018-09-27T17:52:09.152Z,10.67
2018-09-27T17:54:14.217Z,13.53
2018-09-27T17:56:19.550Z,12.30
2018-09-27T17:58:24.570Z,8.40
2018-09-27T18:00:29.560Z,9.77
2018-09-27T18:02:34.309Z,10.73
2018-09-27T18:04:39.252Z,8.80
2018-09-27T18:06:44.153Z,10.27
2018-09-27T18:08:49.110Z,13.93
2018-09-27T18:10:56.840Z,12.30
2018-09-27T18:13:02.019Z,13.63
2018-09-27T18:15:07.053Z,11.83
2018-09-27T18:17:12.277Z,9.93
2018-09-27T18:19:18.427Z,12.20
2018-09-27T18:21:23.809Z,11.93
2018-09-27T18:23:29.538Z,9.00
2018-09-27T18:25:34.685Z,11.37
2018-09-27T18:27:40.550Z,10.77
2018-09-27T18:29:45.944Z,11.47
2018-09-27T18:31:50.829Z,18.40
2018-09-27T18:33:55.693Z,14.90
2018-09-27T18:36:01.638Z,14.03
2018-09-27T18:38:06.937Z,20.80
2018-09-27T18:40:12.927Z,12.50
2018-09-27T18:42:18.474Z,21.67
2018-09-27T18:44:24.129Z,17.37
2018-09-27T18:46:29.988Z,21.83
2018-09-27T18:48:38.795Z,10.73
2018-09-27T18:50:44.846Z,13.90
2018-09-27T18:52:51.963Z,13.23
2018-09-27T18:54:57.685Z,15.23
2018-09-27T18:57:04.259Z,13.53
2018-09-27T18:59:13.647Z,11.57
2018-09-27T19:01:18.839Z,9.37
2018-09-27T19:03:28.862Z,11.13
2018-09-27T19:05:37.700Z,13.70
2018-09-27T19:07:45.437Z,8.60
2018-09-27T19:09:50.781Z,11.40
2018-09-27T19:11:56.886Z,21.57
2018-09-27T19:14:03.316Z,15.20
2018-09-27T19:16:10.485Z,16.07
2018-09-27T19:18:16.392Z,11.27
2018-09-27T19:20:23.045Z,14.23
2018-09-27T19:22:30.326Z,13.87
2018-09-27T19:24:36.139Z,10.37
2018-09-27T19:26:43.379Z,11.23
2018-09-27T19:28:49.878Z,14.23
2018-09-27T19:30:57.476Z,9.80
2018-09-27T19:33:06.370Z,10.93
2018-09-27T19:35:12.419Z,14.70
2018-09-27T19:37:18.841Z,16.63
2018-09-27T19:39:24.753Z,14.37
2018-09-27T19:41:33.175Z,10.33
2018-09-27T19:43:38.374Z,13.10
2018-09-27T19:45:43.397Z,11.63
2018-09-27T19:47:53.905Z,9.73
2018-09-27T19:49:59.176Z,14.67
2018-09-27T19:52:04.713Z,12.70
2018-09-27T19:54:11.167Z,12.90
2018-09-27T19:56:18.317Z,12.03
2018-09-27T19:58:23.895Z,14.17
2018-09-27T20:00:32.234Z,13.57
2018-09-27T20:02:37.635Z,17.20
2018-09-27T20:04:43.190Z,17.20
2018-09-27T20:06:48.127Z,13.97
2018-09-27T20:08:53.864Z,14.60
2018-09-27T20:10:58.766Z,19.80
2018-09-27T20:13:04.249Z,15.23
2018-09-27T20:15:09.062Z,13.77
2018-09-27T20:17:14.025Z,17.00
2018-09-27T20:19:19.068Z,11.97
2018-09-27T20:21:23.843Z,8.30
2018-09-27T20:23:28.808Z,13.27
2018-09-27T20:25:34.042Z,14.37
2018-09-27T20:27:38.823Z,21.63
2018-09-27T20:29:43.978Z,15.57
2018-09-27T20:31:49.023Z,18.60
2018-09-27T20:33:54.174Z,29.13
2018-09-27T20:35:59.389Z,24.57
2018-09-27T20:38:04.193Z,28.97
2018-09-27T20:40:09.573Z,15.53
2018-09-27T20:42:15.053Z,30.50
2018-09-27T20:44:19.969Z,18.77
2018-09-27T20:46:24.933Z,18.00
2018-09-27T20:48:29.856Z,22.73
2018-09-27T20:52:35.092Z,24.93
2018-09-27T20:54:40.361Z,21.73
2018-09-27T20:56:45.613Z,16.87
2018-09-27T20:58:51.118Z,18.27
2018-09-27T21:00:56.361Z,21.73
2018-09-27T21:03:01.377Z,16.10
2018-09-27T21:05:06.164Z,12.83
2018-09-27T21:07:11.001Z,10.63
2018-09-27T21:09:15.766Z,14.20
2018-09-27T21:11:21.056Z,13.07
2018-09-27T21:13:26.349Z,10.43
2018-09-27T21:15:31.735Z,12.50
2018-09-27T21:17:36.704Z,13.60
2018-09-27T21:19:42.051Z,8.67
2018-09-27T21:21:47.409Z,13.53
2018-09-27T21:23:52.383Z,9.17
2018-09-27T21:25:57.219Z,10.40
2018-09-27T21:28:02.087Z,10.73
2018-09-27T21:30:07.406Z,16.03
2018-09-27T21:32:12.230Z,17.40
2018-09-27T21:34:17.424Z,9.17
2018-09-27T21:36:22.161Z,7.67
2018-09-27T21:38:26.994Z,22.03
2018-09-27T21:40:31.919Z,10.50
2018-09-27T21:42:37.322Z,11.27
2018-09-27T21:44:42.116Z,13.87
2018-09-27T21:46:46.927Z,12.57
2018-09-27T21:48:58.199Z,12.33
2018-09-27T21:51:02.902Z,13.60
2018-09-27T21:53:14.287Z,9.43
2018-09-27T21:55:20.137Z,13.53
2018-09-27T21:57:26.351Z,16.77
2018-09-27T21:59:31.061Z,13.10
2018-09-27T22:01:36.112Z,13.30
2018-09-27T22:03:40.830Z,12.10
2018-09-27T22:05:45.730Z,12.23
2018-09-27T22:07:50.407Z,12.63
2018-09-27T22:09:58.352Z,14.60
2018-09-27T22:12:04.161Z,10.47
2018-09-27T22:14:08.958Z,17.00
2018-09-27T22:16:13.689Z,15.27
2018-09-27T22:18:18.479Z,15.30
2018-09-27T22:20:23.185Z,12.10
2018-09-27T22:22:27.973Z,13.20
2018-09-27T22:24:32.744Z,23.83
2018-09-27T22:26:37.533Z,13.27
2018-09-27T22:28:42.355Z,14.13
2018-09-27T22:30:47.065Z,10.03
2018-09-27T22:32:51.802Z,13.27
2018-09-27T22:34:56.638Z,15.50
2018-09-27T22:37:01.422Z,16.37
2018-09-27T22:39:07.357Z,17.70
2018-09-27T22:41:12.108Z,14.43
2018-09-27T22:43:16.885Z,11.90
2018-09-27T22:45:21.951Z,12.67
2018-09-27T22:47:26.632Z,13.30
2018-09-27T22:49:31.305Z,13.70
2018-09-27T22:51:35.969Z,11.30
2018-09-27T22:53:41.083Z,15.60
2018-09-27T22:55:45.743Z,20.17
2018-09-27T22:57:50.594Z,15.97
2018-09-27T22:59:55.239Z,16.13
2018-09-27T23:01:59.985Z,19.30
2018-09-27T23:04:04.878Z,15.57
2018-09-27T23:06:09.623Z,13.07
2018-09-27T23:08:14.374Z,14.40
2018-09-27T23:10:19.041Z,13.67
2018-09-27T23:12:24.145Z,18.40
2018-09-27T23:14:28.790Z,17.70
2018-09-27T23:16:33.578Z,17.13
2018-09-27T23:18:38.332Z,20.17
2018-09-27T23:20:43.221Z,16.53
2018-09-27T23:22:47.998Z,21.77
2018-09-27T23:24:52.897Z,19.17
2018-09-27T23:26:57.682Z,16.83
2018-09-27T23:29:02.452Z,21.63
2018-09-27T23:31:07.294Z,12.47
2018-09-27T23:33:12.140Z,19.37
2018-09-27T23:35:17.017Z,16.53
2018-09-27T23:37:21.978Z,13.37
2018-09-27T23:39:26.734Z,15.90
2018-09-27T23:41:31.609Z,16.63
2018-09-27T23:43:36.618Z,10.43
2018-09-27T23:45:41.569Z,8.20
2018-09-27T23:47:46.389Z,10.13
2018-09-27T23:49:51.291Z,16.80
2018-09-27T23:51:56.004Z,11.63
2018-09-27T23:54:00.679Z,16.40
2018-09-27T23:56:05.501Z,11.20
2018-09-27T23:58:14.002Z,8.97
